Time;durP1;ratioP1;P1;durP2;ratioP2;P2;SDS_P1;SDS_P2;PMS_P1;PMS_P2;Temp;Humidity;BMP_temperature;BMP_pressure;BME280_temperature;BME280_humidity;BME280_pressure;Samples;Min_cycle;Max_cycle;Signal;HPM_P1;HPM_P2
2022/08/12 00:44:45;;;;;;;1.55;1.13;;;26.30;42.50;25.10;101639.00;;;;5079838;28;20048;-67
2022/08/12 00:47:32;;;;;;;1.73;0.90;;;26.30;42.50;25.10;101639.00;;;;5090629;28;20501;-67
2022/08/12 00:50:20;;;;;;;2.33;1.20;;;26.20;42.60;25.10;101644.00;;;;5073857;28;20079;-67
2022/08/12 00:53:06;;;;;;;2.03;1.30;;;26.20;42.60;25.10;101641.00;;;;5075767;28;20052;-67
2022/08/12 00:55:52;;;;;;;3.25;1.35;;;26.20;42.80;25.10;101636.00;;;;5072895;28;20039;-67
2022/08/12 00:58:41;;;;;;;2.88;1.10;;;26.20;43.10;25.10;101640.00;;;;5081822;28;20405;-67
2022/08/12 01:01:27;;;;;;;2.40;1.60;;;26.20;43.10;25.10;101635.00;;;;5075126;28;20052;-67
2022/08/12 01:13:35;;;;;;;2.67;1.25;;;26.20;42.60;25.10;101635.00;;;;5081098;28;20441;-67
2022/08/12 01:16:22;;;;;;;1.20;1.10;;;26.20;42.70;25.10;101631.00;;;;5073672;28;20044;-67
2022/08/12 01:19:08;;;;;;;2.83;1.30;;;26.20;42.70;25.10;101638.00;;;;5070217;28;20041;-67
2022/08/12 01:22:18;;;;;;;1.45;1.35;;;26.20;42.80;25.10;101638.00;;;;5055665;28;20032;-66
2022/08/12 01:25:08;;;;;;;2.30;1.38;;;26.20;42.80;25.10;101633.00;;;;5077574;28;20036;-67
2022/08/12 01:27:54;;;;;;;4.03;1.23;;;26.20;43.10;25.10;101642.00;;;;5059574;28;20118;-67
2022/08/12 01:30:42;;;;;;;1.35;1.20;;;26.10;43.00;25.10;101626.00;;;;5080037;28;20040;-67
2022/08/12 01:33:30;;;;;;;;;;;26.10;43.00;25.10;101637.00;;;;5073352;28;20097;-67
2022/08/12 01:36:16;;;;;;;1.95;1.30;;;26.20;42.90;25.10;101634.00;;;;5077810;28;19914;-67
2022/08/12 01:39:03;;;;;;;2.38;1.05;;;26.20;43.00;25.10;101633.00;;;;5078209;28;20040;-66
2022/08/12 01:41:53;;;;;;;1.30;1.20;;;26.20;43.00;25.10;101631.00;;;;5091707;28;20044;-67
2022/08/12 01:44:40;;;;;;;1.35;1.00;;;26.20;43.20;25.10;101640.00;;;;5073126;28;20501;-67
2022/08/12 01:47:57;;;;;;;1.63;1.30;;;26.10;43.00;25.00;101634.00;;;;5086383;28;20084;-67
2022/08/12 01:51:13;;;;;;;1.40;1.30;;;26.10;42.90;25.00;101637.00;;;;5075267;28;20115;-67
2022/08/12 01:54:07;;;;;;;1.27;1.13;;;26.10;43.10;25.00;101633.00;;;;5074452;28;20079;-67
2022/08/12 01:57:09;;;;;;;2.72;1.30;;;26.10;43.00;25.00;101634.00;;;;5086988;28;20072;-67
2022/08/12 02:00:03;;;;;;;1.60;1.42;;;26.10;43.10;25.00;101633.00;;;;5085578;28;20032;-67
2022/08/12 02:03:06;;;;;;;1.35;1.10;;;26.10;43.10;25.00;101640.00;;;;5076123;28;20469;-67
2022/08/12 02:12:50;;;;;;;1.95;1.50;;;26.10;43.20;25.00;101628.00;;;;5072901;28;20047;-67
2022/08/12 02:16:21;;;;;;;2.00;1.52;;;26.10;43.20;25.00;101625.00;;;;5056563;28;20059;-66
2022/08/12 02:19:52;;;;;;;3.25;1.70;;;26.10;43.10;25.00;101634.00;;;;5088308;28;20032;-67
2022/08/12 02:22:43;;;;;;;1.17;1.08;;;26.10;43.10;25.00;101639.00;;;;5090013;28;20044;-67
2022/08/12 02:25:37;;;;;;;2.95;1.30;;;26.10;43.20;25.00;101636.00;;;;5082899;28;20044;-67
2022/08/12 02:28:23;;;;;;;1.80;1.25;;;26.00;43.20;25.00;101628.00;;;;5058293;28;20044;-66
2022/08/12 02:31:10;;;;;;;3.17;1.38;;;26.10;43.30;25.00;101644.00;;;;5070060;28;20108;-67
2022/08/12 02:33:57;;;;;;;1.30;1.20;;;26.00;43.30;25.00;101631.00;;;;5074992;28;20470;-66
2022/08/12 02:36:43;;;;;;;1.63;1.20;;;26.00;43.30;25.00;101634.00;;;;5078859;28;20284;-66
2022/08/12 02:39:32;;;;;;;1.55;1.40;;;26.00;43.30;25.00;101632.00;;;;5074838;28;20033;-67
2022/08/12 02:42:18;;;;;;;3.28;1.50;;;26.00;43.30;25.00;101633.00;;;;5072699;28;20032;-67
2022/08/12 02:45:06;;;;;;;1.40;1.30;;;26.00;43.30;25.00;101635.00;;;;5067947;28;20051;-67
2022/08/12 02:47:54;;;;;;;2.17;1.27;;;26.10;44.00;25.00;101630.00;;;;5076229;28;20492;-67
2022/08/12 02:50:44;;;;;;;1.73;1.63;;;26.00;43.30;25.00;101632.00;;;;5080177;28;20119;-66
2022/08/12 02:53:33;;;;;;;2.03;1.27;;;26.00;43.30;25.00;101633.00;;;;5070942;28;20405;-66
2022/08/12 02:56:19;;;;;;;1.30;1.20;;;26.00;43.30;25.00;101627.00;;;;5095700;28;20047;-66
2022/08/12 02:59:09;;;;;;;2.22;1.95;;;26.00;43.40;25.00;101636.00;;;;5075399;28;20041;-66
2022/08/12 03:02:01;;;;;;;1.77;1.30;;;26.00;43.50;25.00;101630.00;;;;5068776;28;20035;-66
2022/08/12 03:04:53;;;;;;;2.13;1.20;;;26.00;43.50;24.90;101627.00;;;;5093774;28;20038;-66
2022/08/12 03:07:52;;;;;;;1.63;1.38;;;26.00;43.40;24.90;101623.00;;;;5074778;28;20247;-66
2022/08/12 03:10:41;;;;;;;2.13;1.50;;;25.90;43.30;24.90;101626.00;;;;5073674;28;20481;-67
2022/08/12 03:13:27;;;;;;;1.60;1.50;;;25.90;43.40;24.90;101616.00;;;;5071986;28;20067;-66
2022/08/12 03:16:13;;;;;;;1.33;1.23;;;25.90;43.50;24.90;101615.00;;;;5049906;28;20652;-66
2022/08/12 03:18:59;;;;;;;2.83;1.10;;;25.90;43.40;24.90;101619.00;;;;5085563;28;20096;-66
2022/08/12 03:21:46;;;;;;;1.77;1.23;;;25.90;43.40;24.90;101614.00;;;;5099053;28;20405;-67
2022/08/12 03:24:32;;;;;;;1.65;1.55;;;25.90;43.40;24.90;101615.00;;;;5061684;28;20054;-67
2022/08/12 03:27:18;;;;;;;4.10;1.40;;;25.90;43.40;24.90;101615.00;;;;5076635;28;20051;-66
2022/08/12 03:30:05;;;;;;;1.98;1.58;;;25.90;43.40;24.90;101618.00;;;;5093414;28;20089;-66
2022/08/12 03:32:54;;;;;;;2.97;1.40;;;25.90;43.40;24.90;101617.00;;;;5082454;28;20062;-67
2022/08/12 03:35:41;;;;;;;2.95;1.90;;;25.90;43.50;24.90;101623.00;;;;5080772;28;20096;-67
2022/08/12 03:38:27;;;;;;;3.10;1.58;;;25.90;43.60;24.90;101618.00;;;;5064198;28;20044;-66
2022/08/12 03:41:35;;;;;;;1.63;1.40;;;25.80;43.40;24.90;101616.00;;;;5062374;28;20043;-67
2022/08/12 04:00:22;;;;;;;1.45;1.35;;;25.80;43.40;24.80;101629.00;;;;5084679;28;20039;-67
2022/08/12 04:03:51;;;;;;;1.60;1.50;;;25.80;43.50;24.80;101629.00;;;;5075984;28;20031;-67
2022/08/12 04:06:15;;;;;;;2.67;1.40;;;25.60;43.50;24.80;101628.00;;;;5081840;28;20116;-67
2022/08/12 04:09:01;;;;;;;2.28;1.20;;;25.70;43.60;24.80;101625.00;;;;5085166;28;20075;-67
2022/08/12 04:14:52;;;;;;;2.15;1.17;;;25.60;43.60;24.70;101633.00;;;;5090716;28;20046;-66
2022/08/12 04:17:38;;;;;;;2.17;1.38;;;25.70;43.70;24.70;101633.00;;;;5076802;28;20759;-66
2022/08/12 04:20:24;;;;;;;3.55;1.48;;;25.70;43.70;24.70;101631.00;;;;5088701;28;20040;-66
2022/08/12 04:23:11;;;;;;;2.50;1.50;;;25.60;43.70;24.70;101628.00;;;;5072627;28;20039;-66
2022/08/12 04:25:57;;;;;;;2.08;1.50;;;25.60;43.80;24.70;101629.00;;;;5075999;28;20043;-67
2022/08/12 04:28:44;;;;;;;1.63;1.52;;;25.60;43.80;24.70;101636.00;;;;5089849;28;20048;-67
2022/08/12 04:31:34;;;;;;;3.05;1.80;;;25.60;44.00;24.70;101626.00;;;;5071854;28;20048;-66
2022/08/12 04:34:22;;;;;;;4.70;1.70;;;25.60;44.10;24.70;101623.00;;;;5075015;28;20660;-67
2022/08/12 04:37:08;;;;;;;1.50;1.40;;;25.60;44.00;24.70;101629.00;;;;5068661;28;20505;-66
2022/08/12 04:39:54;;;;;;;2.88;1.50;;;25.60;43.90;24.70;101617.00;;;;5091194;28;20084;-67
2022/08/12 04:42:40;;;;;;;1.77;1.55;;;25.50;43.70;24.70;101625.00;;;;5065740;28;20048;-67
2022/08/12 04:45:26;;;;;;;1.85;1.52;;;25.60;43.80;24.70;101621.00;;;;5073171;28;20493;-67
2022/08/12 04:48:12;;;;;;;1.83;1.52;;;25.60;43.80;24.70;101619.00;;;;5084555;28;20036;-67
2022/08/12 04:50:58;;;;;;;2.75;1.65;;;25.60;43.80;24.70;101619.00;;;;5095744;28;20040;-66
2022/08/12 04:53:46;;;;;;;2.53;1.67;;;25.60;43.90;24.70;101626.00;;;;5055616;28;20291;-66
2022/08/12 04:56:32;;;;;;;1.83;1.48;;;25.60;44.00;24.70;101622.00;;;;5070125;28;20067;-66
2022/08/12 04:59:18;;;;;;;2.40;1.85;;;25.60;44.00;24.70;101622.00;;;;5085062;28;20557;-66
2022/08/12 05:02:04;;;;;;;1.90;1.60;;;25.50;44.00;24.70;101624.00;;;;5070282;28;20075;-67
2022/08/12 05:04:50;;;;;;;4.10;1.65;;;25.50;44.10;24.70;101629.00;;;;5085652;28;20071;-66
2022/08/12 05:07:36;;;;;;;1.85;1.55;;;25.50;44.10;24.70;101626.00;;;;5054890;28;20046;-66
2022/08/12 05:10:22;;;;;;;1.70;1.60;;;25.50;44.20;24.70;101620.00;;;;5092888;28;20386;-66
2022/08/12 05:13:13;;;;;;;3.63;1.63;;;25.50;44.10;24.70;101622.00;;;;5085408;28;20509;-66
2022/08/12 05:15:59;;;;;;;1.90;1.70;;;25.50;44.10;24.70;101624.00;;;;5079511;28;20461;-67
2022/08/12 05:18:45;;;;;;;2.23;1.73;;;25.50;44.00;24.60;101630.00;;;;5090393;28;20101;-66
2022/08/12 05:21:32;;;;;;;2.67;1.42;;;25.50;44.10;24.60;101624.00;;;;5075664;28;20043;-66
2022/08/12 05:24:18;;;;;;;1.85;1.63;;;25.50;44.00;24.60;101620.00;;;;5068237;28;20039;-67
2022/08/12 05:27:04;;;;;;;1.80;1.38;;;25.50;44.00;24.60;101617.00;;;;5064673;28;20113;-67
2022/08/12 05:29:50;;;;;;;2.13;1.85;;;25.50;44.10;24.60;101621.00;;;;5083713;28;20382;-67
2022/08/12 05:32:36;;;;;;;3.30;1.58;;;25.50;44.20;24.60;101622.00;;;;5084816;28;20048;-67
2022/08/12 05:35:22;;;;;;;2.85;1.40;;;25.50;44.30;24.60;101627.00;;;;5064125;28;20044;-67
2022/08/12 05:41:20;;;;;;;4.30;1.75;;;25.50;44.30;24.60;101629.00;;;;5088122;28;20036;-67
2022/08/12 05:44:08;;;;;;;2.55;1.65;;;25.50;44.30;24.60;101629.00;;;;5069828;28;20052;-66
2022/08/12 05:46:54;;;;;;;2.33;2.13;;;25.50;44.30;24.70;101633.00;;;;5064011;28;20406;-67
2022/08/12 05:49:40;;;;;;;2.83;1.65;;;25.50;44.40;24.70;101630.00;;;;5088083;28;20028;-67
2022/08/12 05:52:26;;;;;;;3.50;2.05;;;25.50;44.40;24.70;101645.00;;;;5077449;28;20055;-66
2022/08/12 05:55:12;;;;;;;1.70;1.60;;;25.50;44.50;24.70;101632.00;;;;5083448;28;20043;-66
2022/08/12 05:58:00;;;;;;;1.88;1.63;;;25.60;44.60;24.70;101633.00;;;;5089852;28;20032;-67
2022/08/12 06:00:46;;;;;;;;;;;25.60;44.50;24.70;101635.00;;;;5077969;28;20036;-67
2022/08/12 06:03:32;;;;;;;2.42;1.40;;;25.60;44.30;24.70;101631.00;;;;5088134;28;19919;-67
2022/08/12 06:06:19;;;;;;;3.47;1.90;;;25.60;44.30;24.70;101630.00;;;;5091668;28;20111;-67
2022/08/12 06:09:05;;;;;;;2.08;1.38;;;25.60;44.40;24.70;101623.00;;;;5073914;28;20041;-67
2022/08/12 06:11:51;;;;;;;2.13;1.30;;;25.60;44.40;24.70;101635.00;;;;5088305;28;20082;-66
2022/08/12 06:14:37;;;;;;;1.50;1.40;;;25.60;44.40;24.70;101634.00;;;;5092389;28;20127;-66
2022/08/12 06:17:24;;;;;;;3.25;1.52;;;25.60;44.40;24.70;101638.00;;;;5087484;28;20235;-67
2022/08/12 06:20:13;;;;;;;1.90;1.67;;;25.60;44.30;24.70;101636.00;;;;5091737;28;20043;-67
2022/08/12 06:22:59;;;;;;;2.63;1.63;;;25.70;44.40;24.70;101634.00;;;;5061152;28;20093;-67
2022/08/12 06:25:45;;;;;;;1.60;1.50;;;25.70;44.40;24.70;101641.00;;;;5092579;28;20032;-67
2022/08/12 06:28:31;;;;;;;1.55;1.40;;;25.70;44.40;24.70;101641.00;;;;5089098;28;20051;-67
2022/08/12 06:31:18;;;;;;;1.63;1.48;;;25.80;44.40;24.70;101635.00;;;;5088301;28;20505;-67
2022/08/12 06:34:04;;;;;;;1.88;1.60;;;25.80;44.40;24.70;101639.00;;;;5075079;28;20054;-67
2022/08/12 06:36:53;;;;;;;2.13;1.55;;;25.70;44.30;24.70;101629.00;;;;5089894;28;20028;-67
2022/08/12 06:39:39;;;;;;;1.60;1.50;;;25.70;44.40;24.80;101627.00;;;;5076034;28;20032;-67
2022/08/12 06:45:30;;;;;;;1.45;1.35;;;25.70;44.30;24.80;101640.00;;;;5089275;28;20028;-67
2022/08/12 06:48:16;;;;;;;1.63;1.40;;;25.80;44.40;24.80;101642.00;;;;5086965;28;20036;-67
2022/08/12 06:51:03;;;;;;;1.65;1.45;;;25.80;44.50;24.80;101638.00;;;;5084457;28;20036;-67
2022/08/12 06:53:49;;;;;;;1.95;1.67;;;25.80;44.50;24.80;101633.00;;;;5074963;28;20131;-67
2022/08/12 06:56:35;;;;;;;1.77;1.67;;;25.80;44.70;24.80;101635.00;;;;5087201;28;20036;-67
2022/08/12 06:59:21;;;;;;;2.08;1.60;;;25.70;44.60;24.80;101629.00;;;;5077662;28;20048;-67
2022/08/12 07:02:07;;;;;;;1.60;1.50;;;25.90;44.70;24.80;101630.00;;;;5081418;28;20036;-67
2022/08/12 07:04:53;;;;;;;2.13;1.70;;;25.80;44.50;24.80;101633.00;;;;5087337;28;20101;-67
2022/08/12 07:07:40;;;;;;;1.75;1.60;;;25.90;44.50;24.80;101632.00;;;;5082985;28;20036;-67
2022/08/12 07:10:27;;;;;;;1.60;1.50;;;25.80;44.40;24.80;101636.00;;;;5082160;28;20397;-67
2022/08/12 07:13:13;;;;;;;1.83;1.65;;;25.80;44.30;24.80;101641.00;;;;5073628;28;20046;-67
2022/08/12 07:16:00;;;;;;;1.50;1.40;;;25.80;44.50;24.80;101643.00;;;;5083775;28;20654;-67
2022/08/12 07:18:49;;;;;;;1.60;1.45;;;25.90;44.40;24.80;101646.00;;;;5081775;28;20112;-68
2022/08/12 07:21:36;;;;;;;3.30;1.33;;;25.80;44.40;24.80;101639.00;;;;5083125;28;20075;-67
2022/08/12 07:24:22;;;;;;;7.97;1.60;;;25.80;44.30;24.80;101638.00;;;;5089675;28;20044;-67
2022/08/12 07:27:09;;;;;;;1.85;1.58;;;25.80;44.30;24.80;101639.00;;;;5072431;28;20386;-69
2022/08/12 07:29:55;;;;;;;2.00;1.35;;;25.90;44.40;24.80;101642.00;;;;5075891;28;20504;-68
2022/08/12 07:32:41;;;;;;;1.77;1.35;;;25.90;44.40;24.80;101647.00;;;;5084296;28;20089;-67
2022/08/12 07:35:28;;;;;;;3.45;1.85;;;25.90;44.40;24.80;101647.00;;;;5083354;28;20462;-65
2022/08/12 07:38:32;;;;;;;2.00;1.42;;;25.90;44.40;24.80;101649.00;;;;5086408;28;20067;-66
2022/08/12 07:41:27;;;;;;;1.65;1.52;;;25.90;44.40;24.80;101648.00;;;;5089061;28;20044;-66
2022/08/12 07:44:14;;;;;;;4.07;1.90;;;25.90;44.30;24.80;101643.00;;;;5063755;28;20044;-65
2022/08/12 07:47:02;;;;;;;2.17;1.60;;;25.80;44.20;24.80;101646.00;;;;5088030;28;20043;-65
2022/08/12 07:49:48;;;;;;;;;;;25.90;44.30;24.80;101653.00;;;;5072127;28;20445;-65
2022/08/12 07:52:40;;;;;;;2.15;1.52;;;25.90;44.20;24.80;101658.00;;;;5087231;28;19912;-65
2022/08/12 07:55:27;;;;;;;2.13;1.48;;;25.90;44.10;24.80;101655.00;;;;5075490;28;20085;-65
2022/08/12 07:58:13;;;;;;;2.05;1.85;;;26.00;44.30;24.80;101663.00;;;;5078771;28;20044;-66
2022/08/12 08:00:59;;;;;;;2.50;1.65;;;26.00;44.30;24.80;101662.00;;;;5077150;28;20040;-65
2022/08/12 08:06:56;;;;;;;2.63;1.58;;;25.90;44.10;24.80;101656.00;;;;5075288;28;20071;-65
2022/08/12 08:09:42;;;;;;;1.85;1.63;;;26.00;44.20;24.80;101660.00;;;;5083611;28;20044;-65
2022/08/12 08:15:33;;;;;;;1.67;1.30;;;25.90;44.10;24.80;101661.00;;;;5082015;28;20301;-65
2022/08/12 08:18:20;;;;;;;1.87;1.30;;;25.90;44.20;24.80;101660.00;;;;5075230;28;20037;-65
2022/08/12 08:21:07;;;;;;;1.67;1.38;;;25.90;44.20;24.80;101660.00;;;;5077291;28;20563;-67
2022/08/12 08:26:59;;;;;;;1.98;1.50;;;25.90;44.30;24.80;101659.00;;;;5081575;28;20044;-66
2022/08/12 08:29:45;;;;;;;;;;;25.90;44.30;24.80;101660.00;;;;5076373;28;20096;-80
2022/08/12 08:32:31;;;;;;;5.05;1.85;;;25.90;44.20;24.80;101654.00;;;;5077290;28;19920;-70
2022/08/12 08:35:18;;;;;;;1.73;1.50;;;25.90;44.20;24.80;101653.00;;;;5075336;28;20036;-69
2022/08/12 08:38:10;;;;;;;3.65;1.55;;;25.90;44.10;24.80;101651.00;;;;5086069;28;20500;-68
2022/08/12 08:44:01;;;;;;;2.60;1.30;;;25.90;44.10;24.80;101647.00;;;;5083259;28;20479;-68
2022/08/12 08:46:54;;;;;;;5.30;1.60;;;26.00;44.10;24.80;101644.00;;;;5083283;28;20154;-68
2022/08/12 08:49:40;;;;;;;1.50;1.40;;;25.90;44.10;24.80;101635.00;;;;5072173;28;20096;-68
2022/08/12 08:52:26;;;;;;;2.40;1.40;;;26.00;44.20;24.80;101644.00;;;;5077365;28;20036;-69
2022/08/12 08:55:14;;;;;;;3.28;1.55;;;25.90;44.00;24.80;101646.00;;;;5085147;28;20040;-68
2022/08/12 08:58:00;;;;;;;1.73;1.50;;;25.90;44.00;24.80;101646.00;;;;5061377;28;20040;-68
2022/08/12 09:00:49;;;;;;;2.38;1.52;;;25.80;43.90;24.80;101646.00;;;;5091718;28;20044;-68
2022/08/12 09:03:35;;;;;;;1.58;1.40;;;25.90;43.90;24.80;101646.00;;;;5091936;28;20036;-68
2022/08/12 09:06:22;;;;;;;2.85;1.63;;;25.80;43.80;24.80;101641.00;;;;5092991;28;20043;-68
2022/08/12 09:09:08;;;;;;;3.08;1.70;;;25.90;43.80;24.80;101644.00;;;;5075069;28;20125;-68
2022/08/12 09:14:59;;;;;;;1.70;1.60;;;25.90;43.90;24.80;101638.00;;;;5077267;28;20130;-68
2022/08/12 09:18:08;;;;;;;3.35;1.77;;;26.00;43.90;24.80;101633.00;;;;5089393;28;20389;-68
2022/08/12 09:20:54;;;;;;;1.55;1.42;;;25.90;43.90;24.80;101633.00;;;;5090032;28;20414;-68
2022/08/12 09:23:41;;;;;;;2.30;1.70;;;25.90;43.90;24.80;101637.00;;;;5090737;28;20044;-68
2022/08/12 09:26:28;;;;;;;2.38;1.52;;;25.90;44.00;24.80;101635.00;;;;5082676;28;20086;-68
2022/08/12 09:29:19;;;;;;;2.63;1.50;;;26.00;44.00;24.80;101630.00;;;;5089077;28;20083;-68
2022/08/12 09:32:05;;;;;;;2.85;1.40;;;26.00;44.00;24.80;101621.00;;;;5078333;28;20089;-68
2022/08/12 09:34:51;;;;;;;1.85;1.38;;;25.90;43.80;24.80;101624.00;;;;5093324;28;20047;-68
2022/08/12 09:37:38;;;;;;;2.05;1.50;;;26.00;43.90;24.90;101636.00;;;;5087620;28;20191;-68
2022/08/12 09:40:24;;;;;;;1.80;1.20;;;26.00;43.90;24.90;101634.00;;;;5073235;28;20029;-68
2022/08/12 09:46:23;;;;;;;2.45;1.55;;;26.00;43.90;24.90;101626.00;;;;5073150;28;20067;-68
2022/08/12 09:49:09;;;;;;;6.03;1.87;;;26.00;43.90;24.80;101619.00;;;;5087300;28;20064;-68
2022/08/12 09:51:56;;;;;;;1.88;1.67;;;26.00;43.80;24.80;101620.00;;;;5084934;28;20032;-68
2022/08/12 09:54:42;;;;;;;1.52;1.42;;;26.00;43.80;24.90;101618.00;;;;5091824;28;20036;-68
2022/08/12 09:57:28;;;;;;;3.05;1.42;;;26.00;43.70;24.90;101616.00;;;;5077118;28;20503;-68
2022/08/12 10:00:16;;;;;;;2.72;1.27;;;26.00;43.70;24.90;101616.00;;;;5091356;28;20446;-68
2022/08/12 10:03:09;;;;;;;1.60;1.20;;;26.00;43.70;24.90;101608.00;;;;5089219;28;20032;-68
2022/08/12 10:05:55;;;;;;;3.50;1.90;;;26.00;43.70;24.90;101616.00;;;;5076015;28;20115;-68
2022/08/12 10:08:43;;;;;;;1.70;1.55;;;26.00;43.70;24.90;101612.00;;;;5091910;28;20044;-68
2022/08/12 10:14:33;;;;;;;2.22;1.40;;;26.00;43.60;24.90;101604.00;;;;5093127;28;20047;-68
2022/08/12 10:17:20;;;;;;;2.55;1.40;;;26.00;43.60;24.90;101597.00;;;;5091071;28;20036;-68
2022/08/12 10:20:06;;;;;;;1.77;1.30;;;25.90;43.40;24.90;101596.00;;;;5089069;28;20074;-68
2022/08/12 10:22:57;;;;;;;2.25;1.40;;;25.90;43.30;24.90;101585.00;;;;5090839;28;20036;-68
2022/08/12 10:31:52;;;;;;;2.67;1.50;;;26.00;43.20;24.90;101571.00;;;;5063922;28;20297;-68
2022/08/12 10:34:41;;;;;;;5.30;1.42;;;26.00;43.40;24.90;101578.00;;;;5082464;28;20047;-68
2022/08/12 10:37:27;;;;;;;2.72;1.30;;;26.00;43.30;24.90;101577.00;;;;5077705;28;20473;-68
2022/08/12 10:40:13;;;;;;;1.55;1.30;;;26.10;43.30;24.90;101575.00;;;;5074751;28;20047;-68
2022/08/12 10:46:06;;;;;;;2.08;1.20;;;26.00;43.40;24.90;101564.00;;;;5050790;28;20489;-68
2022/08/12 10:48:52;;;;;;;1.42;1.30;;;26.00;43.20;24.90;101565.00;;;;5078288;28;20036;-68
2022/08/12 10:51:39;;;;;;;1.33;1.15;;;26.00;43.00;24.90;101561.00;;;;5077879;28;20048;-68
2022/08/12 10:54:26;;;;;;;1.80;1.47;;;26.00;42.90;24.90;101557.00;;;;5074072;28;20402;-68
2022/08/12 10:57:12;;;;;;;1.37;1.10;;;26.10;42.80;24.90;101549.00;;;;5079212;28;20036;-68
2022/08/12 10:59:58;;;;;;;1.77;1.20;;;26.00;42.70;24.90;101554.00;;;;5078000;28;20739;-68
2022/08/12 11:02:53;;;;;;;3.20;1.50;;;26.10;42.70;24.90;101544.00;;;;5077118;28;20411;-68
2022/08/12 11:05:39;;;;;;;1.77;1.17;;;26.10;42.50;24.90;101548.00;;;;5076376;28;20506;-68
2022/08/12 11:08:26;;;;;;;2.45;1.38;;;26.10;42.50;24.90;101540.00;;;;5081986;28;20044;-68
2022/08/12 11:11:16;;;;;;;4.30;1.83;;;26.10;42.50;24.90;101535.00;;;;5078352;28;20036;-68
2022/08/12 11:14:02;;;;;;;1.25;1.15;;;26.00;42.40;24.90;101532.00;;;;5065526;28;20033;-68
2022/08/12 11:16:48;;;;;;;1.92;1.20;;;26.10;42.50;24.90;101529.00;;;;5086439;28;20035;-68
2022/08/12 11:19:36;;;;;;;1.30;1.10;;;26.10;42.40;24.90;101533.00;;;;5087258;28;20040;-68
2022/08/12 11:22:22;;;;;;;1.38;1.27;;;26.10;42.40;24.90;101517.00;;;;5064193;28;20119;-68
2022/08/12 11:25:08;;;;;;;2.55;1.83;;;26.10;42.50;24.90;101518.00;;;;5077179;28;20067;-68
2022/08/12 11:27:54;;;;;;;1.30;1.20;;;26.10;42.60;24.90;101523.00;;;;5077041;28;20477;-68
2022/08/12 11:30:41;;;;;;;1.40;1.30;;;26.10;42.60;24.90;101518.00;;;;5051388;28;20072;-68
2022/08/12 11:33:27;;;;;;;2.40;1.20;;;26.10;42.60;24.90;101511.00;;;;5070215;28;20048;-68
2022/08/12 11:36:13;;;;;;;1.58;1.20;;;26.10;42.70;24.90;101519.00;;;;5084589;28;20063;-68
2022/08/12 11:38:59;;;;;;;3.88;1.45;;;26.10;42.60;24.90;101511.00;;;;5083434;28;20028;-68
2022/08/12 11:41:45;;;;;;;1.65;1.17;;;26.10;42.50;24.90;101504.00;;;;5074030;28;20044;-68
2022/08/12 11:44:31;;;;;;;1.60;1.23;;;26.10;42.60;24.90;101504.00;;;;5057967;28;20047;-68
2022/08/12 11:47:17;;;;;;;1.73;1.20;;;26.20;42.60;24.90;101495.00;;;;5077911;28;20492;-68
2022/08/12 11:50:04;;;;;;;1.85;1.08;;;26.10;42.50;24.90;101494.00;;;;5070588;28;20036;-68
2022/08/12 11:52:50;;;;;;;1.73;1.27;;;26.10;42.50;25.00;101498.00;;;;5071927;28;20050;-68
2022/08/12 11:55:36;;;;;;;3.38;1.23;;;26.10;42.50;25.00;101492.00;;;;5064928;28;20032;-68
2022/08/12 11:58:22;;;;;;;1.50;1.27;;;26.20;42.60;25.00;101488.00;;;;5071265;28;20132;-68
2022/08/12 12:01:08;;;;;;;1.48;1.35;;;26.20;42.60;25.00;101488.00;;;;5074865;28;20433;-68
2022/08/12 12:03:54;;;;;;;1.20;1.10;;;26.20;42.50;25.00;101493.00;;;;5073041;28;20036;-68
2022/08/12 12:06:41;;;;;;;2.45;1.42;;;26.20;42.40;25.00;101488.00;;;;5072630;28;20051;-68
2022/08/12 12:09:27;;;;;;;1.90;1.27;;;26.20;42.50;25.00;101492.00;;;;5073200;28;20048;-68
2022/08/12 12:12:13;;;;;;;2.08;1.30;;;26.20;42.20;25.00;101488.00;;;;5076065;28;20052;-68
2022/08/12 12:14:59;;;;;;;1.40;1.30;;;26.20;42.00;25.00;101490.00;;;;5074052;28;20039;-68
2022/08/12 12:17:46;;;;;;;1.25;1.15;;;26.20;41.80;25.00;101486.00;;;;5037155;28;20032;-70
2022/08/12 12:20:33;;;;;;;1.20;1.10;;;26.20;41.60;25.00;101487.00;;;;5076658;28;20118;-70
2022/08/12 12:23:19;;;;;;;3.08;1.30;;;26.20;41.50;25.00;101481.00;;;;5071922;28;20053;-68
2022/08/12 12:26:05;;;;;;;2.03;1.10;;;26.20;41.40;25.00;101486.00;;;;5066316;28;20383;-68
2022/08/12 12:28:51;;;;;;;2.90;1.23;;;26.20;41.20;25.00;101480.00;;;;5055373;28;20131;-68
2022/08/12 12:31:37;;;;;;;1.13;0.90;;;26.20;41.20;25.00;101471.00;;;;5068554;28;20040;-67
2022/08/12 12:34:23;;;;;;;3.42;1.33;;;26.30;41.20;25.00;101477.00;;;;5071777;28;20037;-67
2022/08/12 12:37:11;;;;;;;1.55;1.05;;;26.20;41.10;25.00;101473.00;;;;5077769;28;20558;-67
2022/08/12 12:39:58;;;;;;;3.67;1.60;;;26.30;41.20;25.10;101478.00;;;;5065154;28;20032;-68
2022/08/12 12:42:44;;;;;;;1.80;1.30;;;26.30;41.00;25.10;101467.00;;;;5072324;28;20111;-67
2022/08/12 12:45:31;;;;;;;2.75;1.40;;;26.30;40.80;25.10;101468.00;;;;5090621;28;20043;-68
2022/08/12 12:48:18;;;;;;;1.98;1.38;;;26.30;40.70;25.10;101464.00;;;;5088096;28;20032;-68
2022/08/12 12:51:26;;;;;;;2.55;1.10;;;26.30;41.00;25.10;101464.00;;;;5088162;28;20466;-68
2022/08/12 12:54:11;;;;;;;1.65;1.35;;;26.30;40.90;25.10;101466.00;;;;5078287;28;20150;-68
2022/08/12 12:56:57;;;;;;;5.60;1.50;;;26.30;40.70;25.10;101459.00;;;;5085780;28;20032;-68
2022/08/12 13:00:13;;;;;;;1.88;1.20;;;26.30;40.50;25.10;101458.00;;;;5087810;28;20032;-68
2022/08/12 13:03:12;;;;;;;2.10;1.30;;;26.30;40.90;25.10;101464.00;;;;5076427;28;20122;-74
2022/08/12 13:05:59;;;;;;;2.20;1.20;;;26.30;41.00;25.10;101458.00;;;;5071580;28;20032;-75
2022/08/12 13:08:45;;;;;;;2.75;1.50;;;26.30;40.80;25.10;101454.00;;;;5075108;28;20451;-73
2022/08/12 13:11:31;;;;;;;1.20;1.10;;;26.30;40.70;25.10;101465.00;;;;5093705;28;20043;-73
2022/08/12 13:14:18;;;;;;;2.72;1.00;;;26.40;40.80;25.10;101464.00;;;;5061058;28;20865;-73
2022/08/12 13:17:04;;;;;;;3.20;1.23;;;26.40;40.80;25.10;101456.00;;;;5071156;28;20046;-73
2022/08/12 13:19:53;;;;;;;1.20;1.10;;;26.40;40.80;25.10;101456.00;;;;5080509;28;20046;-72
2022/08/12 13:22:39;;;;;;;4.22;1.02;;;26.40;40.70;25.10;101455.00;;;;5073835;28;20123;-73
2022/08/12 13:25:26;;;;;;;2.45;1.17;;;26.40;40.70;25.10;101455.00;;;;5075483;28;20044;-73
2022/08/12 13:28:20;;;;;;;3.30;1.63;;;26.40;40.80;25.10;101454.00;;;;5063320;28;20496;-73
2022/08/12 13:31:07;;;;;;;3.38;1.25;;;26.40;40.70;25.10;101447.00;;;;5075295;28;20036;-72
2022/08/12 13:33:53;;;;;;;1.77;1.20;;;26.40;40.80;25.10;101453.00;;;;5089920;28;20036;-72
2022/08/12 13:36:39;;;;;;;1.20;1.10;;;26.40;40.80;25.10;101443.00;;;;5093592;28;20039;-72
2022/08/12 13:39:25;;;;;;;4.72;1.25;;;26.40;40.80;25.10;101446.00;;;;5086886;28;20173;-73
2022/08/12 13:42:12;;;;;;;1.15;1.05;;;26.40;40.80;25.10;101450.00;;;;5083064;28;20032;-73
2022/08/12 13:44:58;;;;;;;1.48;1.02;;;26.40;40.70;25.10;101451.00;;;;5091870;28;20032;-73
2022/08/12 13:48:04;;;;;;;1.65;1.00;;;26.40;41.30;25.10;101434.00;;;;5094638;28;20044;-73
2022/08/12 13:50:51;;;;;;;1.92;1.20;;;26.50;40.60;25.10;101438.00;;;;5090309;28;20454;-72
2022/08/12 13:53:38;;;;;;;;;;;26.40;40.60;25.10;101442.00;;;;5093086;28;20118;-73
2022/08/12 13:56:25;;;;;;;1.20;0.98;;;26.40;40.90;25.10;101425.00;;;;5088538;28;19965;-72
2022/08/12 13:59:12;;;;;;;2.38;1.38;;;26.50;40.70;25.10;101432.00;;;;5065803;28;20045;-72
2022/08/12 14:01:58;;;;;;;2.33;1.27;;;26.50;40.70;25.10;101430.00;;;;5086340;28;20071;-72
2022/08/12 14:04:44;;;;;;;0.90;0.90;;;26.40;40.60;25.20;101421.00;;;;5092605;28;20039;-72
2022/08/12 14:07:32;;;;;;;1.85;1.20;;;26.50;40.60;25.20;101427.00;;;;5075245;28;20028;-72
2022/08/12 14:10:35;;;;;;;1.75;1.13;;;26.40;40.50;25.20;101424.00;;;;5087419;28;20089;-72
2022/08/12 14:13:25;;;;;;;4.70;1.30;;;26.40;40.40;25.20;101426.00;;;;5084698;28;20067;-73
2022/08/12 14:16:15;;;;;;;1.23;1.13;;;26.50;40.50;25.20;101419.00;;;;5082800;28;20074;-72